sensor_id;sensor_type;location;lat;lon;timestamp;P1;durP1;ratioP1;P2;durP2;ratioP2
76846;SDS011;65813;49.546;8.644;2023-08-30T00:01:25;3.47;;;2.10;;
76846;SDS011;65813;49.546;8.644;2023-08-30T00:05:26;4.65;;;2.22;;
76846;SDS011;65813;49.546;8.644;2023-08-30T00:09:27;3.22;;;1.92;;
76846;SDS011;65813;49.546;8.644;2023-08-30T00:13:31;4.57;;;2.30;;
76846;SDS011;65813;49.546;8.644;2023-08-30T00:17:33;3.58;;;2.33;;
76846;SDS011;65813;49.546;8.644;2023-08-30T00:21:33;6.80;;;2.40;;
76846;SDS011;65813;49.546;8.644;2023-08-30T00:25:34;4.72;;;2.22;;
76846;SDS011;65813;49.546;8.644;2023-08-30T00:29:34;3.40;;;2.00;;
76846;SDS011;65813;49.546;8.644;2023-08-30T00:33:34;3.53;;;1.70;;
76846;SDS011;65813;49.546;8.644;2023-08-30T00:37:34;4.97;;;2.10;;
76846;SDS011;65813;49.546;8.644;2023-08-30T00:41:35;3.30;;;2.00;;
76846;SDS011;65813;49.546;8.644;2023-08-30T00:45:35;3.83;;;2.10;;
76846;SDS011;65813;49.546;8.644;2023-08-30T00:49:39;3.92;;;2.08;;
76846;SDS011;65813;49.546;8.644;2023-08-30T00:53:40;3.78;;;2.33;;
76846;SDS011;65813;49.546;8.644;2023-08-30T00:57:40;5.30;;;2.30;;
76846;SDS011;65813;49.546;8.644;2023-08-30T01:01:41;5.15;;;2.25;;
76846;SDS011;65813;49.546;8.644;2023-08-30T01:05:41;3.65;;;2.10;;
76846;SDS011;65813;49.546;8.644;2023-08-30T01:09:42;3.93;;;2.33;;
76846;SDS011;65813;49.546;8.644;2023-08-30T01:13:56;4.68;;;2.55;;
76846;SDS011;65813;49.546;8.644;2023-08-30T01:18:00;4.80;;;2.70;;
76846;SDS011;65813;49.546;8.644;2023-08-30T01:22:15;4.50;;;2.40;;
76846;SDS011;65813;49.546;8.644;2023-08-30T01:26:24;4.75;;;2.80;;
76846;SDS011;65813;49.546;8.644;2023-08-30T01:30:32;6.07;;;2.53;;
76846;SDS011;65813;49.546;8.644;2023-08-30T01:34:34;5.28;;;3.00;;
76846;SDS011;65813;49.546;8.644;2023-08-30T01:38:36;4.30;;;2.53;;
76846;SDS011;65813;49.546;8.644;2023-08-30T01:42:38;5.22;;;3.38;;
76846;SDS011;65813;49.546;8.644;2023-08-30T01:46:39;4.75;;;3.03;;
76846;SDS011;65813;49.546;8.644;2023-08-30T01:50:40;5.93;;;3.08;;
76846;SDS011;65813;49.546;8.644;2023-08-30T01:54:42;5.85;;;3.92;;
76846;SDS011;65813;49.546;8.644;2023-08-30T01:58:45;6.47;;;3.78;;
76846;SDS011;65813;49.546;8.644;2023-08-30T02:02:46;7.00;;;3.80;;
76846;SDS011;65813;49.546;8.644;2023-08-30T02:11:23;6.40;;;3.97;;
76846;SDS011;65813;49.546;8.644;2023-08-30T02:15:27;5.60;;;3.92;;
76846;SDS011;65813;49.546;8.644;2023-08-30T02:19:30;5.45;;;3.78;;
76846;SDS011;65813;49.546;8.644;2023-08-30T02:23:31;6.50;;;3.95;;
76846;SDS011;65813;49.546;8.644;2023-08-30T02:27:32;6.23;;;4.17;;
76846;SDS011;65813;49.546;8.644;2023-08-30T02:31:33;5.88;;;3.97;;
76846;SDS011;65813;49.546;8.644;2023-08-30T02:35:33;5.55;;;4.00;;
76846;SDS011;65813;49.546;8.644;2023-08-30T02:39:34;6.00;;;4.10;;
76846;SDS011;65813;49.546;8.644;2023-08-30T02:43:34;8.60;;;5.25;;
76846;SDS011;65813;49.546;8.644;2023-08-30T02:47:34;6.07;;;4.67;;
76846;SDS011;65813;49.546;8.644;2023-08-30T02:51:35;5.85;;;3.55;;
76846;SDS011;65813;49.546;8.644;2023-08-30T02:55:36;6.57;;;5.13;;
76846;SDS011;65813;49.546;8.644;2023-08-30T02:59:37;6.88;;;5.38;;
76846;SDS011;65813;49.546;8.644;2023-08-30T03:03:37;8.57;;;5.30;;
76846;SDS011;65813;49.546;8.644;2023-08-30T03:07:37;6.73;;;4.93;;
76846;SDS011;65813;49.546;8.644;2023-08-30T03:11:38;9.60;;;5.53;;
76846;SDS011;65813;49.546;8.644;2023-08-30T03:15:38;9.90;;;6.07;;
76846;SDS011;65813;49.546;8.644;2023-08-30T03:19:38;7.47;;;5.27;;
76846;SDS011;65813;49.546;8.644;2023-08-30T03:23:39;8.00;;;5.50;;
76846;SDS011;65813;49.546;8.644;2023-08-30T03:27:42;9.07;;;5.50;;
76846;SDS011;65813;49.546;8.644;2023-08-30T03:31:44;7.80;;;5.15;;
76846;SDS011;65813;49.546;8.644;2023-08-30T03:35:44;10.10;;;6.40;;
76846;SDS011;65813;49.546;8.644;2023-08-30T03:39:44;9.10;;;6.30;;
76846;SDS011;65813;49.546;8.644;2023-08-30T03:43:45;9.63;;;6.70;;
76846;SDS011;65813;49.546;8.644;2023-08-30T03:47:45;9.47;;;6.37;;
76846;SDS011;65813;49.546;8.644;2023-08-30T03:51:45;7.97;;;5.57;;
76846;SDS011;65813;49.546;8.644;2023-08-30T03:55:46;8.55;;;6.43;;
76846;SDS011;65813;49.546;8.644;2023-08-30T03:59:46;9.10;;;5.80;;
76846;SDS011;65813;49.546;8.644;2023-08-30T04:03:47;8.57;;;6.37;;
76846;SDS011;65813;49.546;8.644;2023-08-30T04:07:47;8.87;;;6.47;;
76846;SDS011;65813;49.546;8.644;2023-08-30T04:11:47;8.70;;;6.70;;
76846;SDS011;65813;49.546;8.644;2023-08-30T04:15:48;8.80;;;6.83;;
76846;SDS011;65813;49.546;8.644;2023-08-30T04:19:51;9.02;;;6.50;;
76846;SDS011;65813;49.546;8.644;2023-08-30T04:23:51;7.93;;;6.43;;
76846;SDS011;65813;49.546;8.644;2023-08-30T04:27:52;9.67;;;6.33;;
76846;SDS011;65813;49.546;8.644;2023-08-30T04:31:52;10.50;;;6.40;;
76846;SDS011;65813;49.546;8.644;2023-08-30T04:35:53;7.77;;;6.03;;
76846;SDS011;65813;49.546;8.644;2023-08-30T04:39:54;7.10;;;5.10;;
76846;SDS011;65813;49.546;8.644;2023-08-30T04:43:54;6.95;;;4.97;;
76846;SDS011;65813;49.546;8.644;2023-08-30T04:47:54;8.70;;;6.47;;
76846;SDS011;65813;49.546;8.644;2023-08-30T04:51:55;7.63;;;6.15;;
76846;SDS011;65813;49.546;8.644;2023-08-30T04:55:56;8.67;;;6.60;;
76846;SDS011;65813;49.546;8.644;2023-08-30T04:59:56;9.43;;;6.50;;
76846;SDS011;65813;49.546;8.644;2023-08-30T05:03:57;9.52;;;6.15;;
76846;SDS011;65813;49.546;8.644;2023-08-30T05:07:57;7.63;;;6.03;;
76846;SDS011;65813;49.546;8.644;2023-08-30T05:11:57;8.90;;;6.13;;
76846;SDS011;65813;49.546;8.644;2023-08-30T05:15:58;13.57;;;7.03;;
76846;SDS011;65813;49.546;8.644;2023-08-30T05:19:58;8.60;;;6.80;;
76846;SDS011;65813;49.546;8.644;2023-08-30T05:23:58;9.73;;;6.63;;
76846;SDS011;65813;49.546;8.644;2023-08-30T05:27:59;8.02;;;5.47;;
76846;SDS011;65813;49.546;8.644;2023-08-30T05:31:59;10.90;;;7.07;;
76846;SDS011;65813;49.546;8.644;2023-08-30T05:35:59;8.53;;;5.87;;
76846;SDS011;65813;49.546;8.644;2023-08-30T05:40:00;8.70;;;6.40;;
76846;SDS011;65813;49.546;8.644;2023-08-30T05:44:00;9.27;;;6.40;;
76846;SDS011;65813;49.546;8.644;2023-08-30T05:48:00;9.87;;;6.07;;
76846;SDS011;65813;49.546;8.644;2023-08-30T05:52:01;8.73;;;6.50;;
76846;SDS011;65813;49.546;8.644;2023-08-30T05:56:01;11.57;;;6.33;;
76846;SDS011;65813;49.546;8.644;2023-08-30T06:00:02;8.63;;;6.32;;
76846;SDS011;65813;49.546;8.644;2023-08-30T06:04:05;8.00;;;5.45;;
76846;SDS011;65813;49.546;8.644;2023-08-30T06:08:05;7.97;;;5.43;;
76846;SDS011;65813;49.546;8.644;2023-08-30T06:12:08;8.90;;;6.03;;
76846;SDS011;65813;49.546;8.644;2023-08-30T06:16:08;9.48;;;6.10;;
76846;SDS011;65813;49.546;8.644;2023-08-30T06:20:08;8.93;;;6.13;;
76846;SDS011;65813;49.546;8.644;2023-08-30T06:24:09;7.47;;;5.28;;
76846;SDS011;65813;49.546;8.644;2023-08-30T06:28:09;6.20;;;4.40;;
76846;SDS011;65813;49.546;8.644;2023-08-30T06:32:10;6.20;;;4.47;;
76846;SDS011;65813;49.546;8.644;2023-08-30T06:36:10;7.93;;;5.63;;
76846;SDS011;65813;49.546;8.644;2023-08-30T06:40:11;7.03;;;5.43;;
76846;SDS011;65813;49.546;8.644;2023-08-30T06:44:12;7.73;;;5.43;;
76846;SDS011;65813;49.546;8.644;2023-08-30T06:48:12;7.30;;;4.80;;
76846;SDS011;65813;49.546;8.644;2023-08-30T06:52:12;9.13;;;5.40;;
76846;SDS011;65813;49.546;8.644;2023-08-30T06:56:13;7.47;;;5.10;;
76846;SDS011;65813;49.546;8.644;2023-08-30T07:00:13;6.77;;;5.17;;
76846;SDS011;65813;49.546;8.644;2023-08-30T07:04:14;8.57;;;5.35;;
76846;SDS011;65813;49.546;8.644;2023-08-30T07:08:14;7.40;;;4.43;;
76846;SDS011;65813;49.546;8.644;2023-08-30T07:12:15;6.80;;;5.05;;
76846;SDS011;65813;49.546;8.644;2023-08-30T07:16:15;5.87;;;3.90;;
76846;SDS011;65813;49.546;8.644;2023-08-30T07:20:15;7.87;;;5.77;;
76846;SDS011;65813;49.546;8.644;2023-08-30T07:24:16;9.05;;;5.82;;
76846;SDS011;65813;49.546;8.644;2023-08-30T07:28:16;7.25;;;4.50;;
76846;SDS011;65813;49.546;8.644;2023-08-30T07:32:16;7.77;;;5.33;;
76846;SDS011;65813;49.546;8.644;2023-08-30T07:36:17;6.87;;;5.33;;
76846;SDS011;65813;49.546;8.644;2023-08-30T07:40:17;7.60;;;5.50;;
76846;SDS011;65813;49.546;8.644;2023-08-30T07:44:17;8.13;;;5.83;;
76846;SDS011;65813;49.546;8.644;2023-08-30T07:48:19;7.05;;;4.35;;
76846;SDS011;65813;49.546;8.644;2023-08-30T07:52:20;9.88;;;5.60;;
76846;SDS011;65813;49.546;8.644;2023-08-30T07:56:20;8.50;;;6.37;;
76846;SDS011;65813;49.546;8.644;2023-08-30T08:00:21;7.70;;;5.85;;
76846;SDS011;65813;49.546;8.644;2023-08-30T08:04:21;9.13;;;6.40;;
76846;SDS011;65813;49.546;8.644;2023-08-30T08:08:24;9.00;;;6.05;;
76846;SDS011;65813;49.546;8.644;2023-08-30T08:12:25;7.63;;;5.47;;
76846;SDS011;65813;49.546;8.644;2023-08-30T08:16:26;7.45;;;5.75;;
76846;SDS011;65813;49.546;8.644;2023-08-30T08:20:28;7.88;;;5.55;;
76846;SDS011;65813;49.546;8.644;2023-08-30T08:24:29;9.80;;;7.78;;
76846;SDS011;65813;49.546;8.644;2023-08-30T08:28:30;8.60;;;6.83;;
76846;SDS011;65813;49.546;8.644;2023-08-30T08:32:30;9.05;;;6.22;;
76846;SDS011;65813;49.546;8.644;2023-08-30T08:36:31;8.50;;;6.75;;
76846;SDS011;65813;49.546;8.644;2023-08-30T08:40:31;8.33;;;6.57;;
76846;SDS011;65813;49.546;8.644;2023-08-30T08:44:32;9.33;;;6.27;;
76846;SDS011;65813;49.546;8.644;2023-08-30T08:48:33;7.97;;;5.90;;
76846;SDS011;65813;49.546;8.644;2023-08-30T08:52:39;8.48;;;6.60;;
76846;SDS011;65813;49.546;8.644;2023-08-30T08:56:40;10.52;;;6.05;;
76846;SDS011;65813;49.546;8.644;2023-08-30T09:00:43;8.23;;;5.68;;
76846;SDS011;65813;49.546;8.644;2023-08-30T09:04:44;10.82;;;6.28;;
76846;SDS011;65813;49.546;8.644;2023-08-30T09:08:59;9.40;;;6.07;;
76846;SDS011;65813;49.546;8.644;2023-08-30T09:13:08;7.07;;;5.22;;
76846;SDS011;65813;49.546;8.644;2023-08-30T09:17:08;10.18;;;5.95;;
76846;SDS011;65813;49.546;8.644;2023-08-30T09:21:09;7.57;;;5.23;;
76846;SDS011;65813;49.546;8.644;2023-08-30T09:25:11;8.10;;;5.68;;
76846;SDS011;65813;49.546;8.644;2023-08-30T09:29:23;8.95;;;6.70;;
76846;SDS011;65813;49.546;8.644;2023-08-30T09:33:30;7.78;;;5.80;;
76846;SDS011;65813;49.546;8.644;2023-08-30T09:37:32;8.18;;;5.57;;
76846;SDS011;65813;49.546;8.644;2023-08-30T09:41:32;9.43;;;5.37;;
76846;SDS011;65813;49.546;8.644;2023-08-30T09:45:33;6.53;;;5.13;;
76846;SDS011;65813;49.546;8.644;2023-08-30T09:49:36;7.80;;;4.65;;
76846;SDS011;65813;49.546;8.644;2023-08-30T09:53:44;6.10;;;4.63;;
76846;SDS011;65813;49.546;8.644;2023-08-30T09:57:49;8.55;;;4.68;;
76846;SDS011;65813;49.546;8.644;2023-08-30T10:01:50;7.15;;;3.70;;
76846;SDS011;65813;49.546;8.644;2023-08-30T10:05:52;8.00;;;4.72;;
76846;SDS011;65813;49.546;8.644;2023-08-30T10:09:54;5.72;;;3.25;;
76846;SDS011;65813;49.546;8.644;2023-08-30T10:13:56;5.90;;;3.35;;
76846;SDS011;65813;49.546;8.644;2023-08-30T10:17:59;6.65;;;3.53;;
76846;SDS011;65813;49.546;8.644;2023-08-30T10:22:03;6.35;;;4.20;;
76846;SDS011;65813;49.546;8.644;2023-08-30T10:26:14;4.72;;;3.20;;
76846;SDS011;65813;49.546;8.644;2023-08-30T10:30:17;5.40;;;3.22;;
76846;SDS011;65813;49.546;8.644;2023-08-30T10:34:20;6.60;;;3.05;;
76846;SDS011;65813;49.546;8.644;2023-08-30T10:38:25;6.75;;;2.50;;
76846;SDS011;65813;49.546;8.644;2023-08-30T10:42:28;6.68;;;3.67;;
76846;SDS011;65813;49.546;8.644;2023-08-30T10:46:33;4.20;;;2.63;;
76846;SDS011;65813;49.546;8.644;2023-08-30T10:50:36;4.40;;;2.75;;
76846;SDS011;65813;49.546;8.644;2023-08-30T10:54:36;5.55;;;3.03;;
76846;SDS011;65813;49.546;8.644;2023-08-30T10:58:43;4.10;;;2.20;;
76846;SDS011;65813;49.546;8.644;2023-08-30T11:02:44;4.50;;;2.35;;
76846;SDS011;65813;49.546;8.644;2023-08-30T11:06:46;5.13;;;2.47;;
76846;SDS011;65813;49.546;8.644;2023-08-30T11:10:48;3.50;;;1.98;;
76846;SDS011;65813;49.546;8.644;2023-08-30T11:14:48;3.90;;;2.25;;
76846;SDS011;65813;49.546;8.644;2023-08-30T11:18:49;4.10;;;2.25;;
76846;SDS011;65813;49.546;8.644;2023-08-30T11:22:49;3.80;;;1.87;;
76846;SDS011;65813;49.546;8.644;2023-08-30T11:26:59;5.03;;;2.50;;
76846;SDS011;65813;49.546;8.644;2023-08-30T11:30:59;4.45;;;2.10;;
76846;SDS011;65813;49.546;8.644;2023-08-30T11:35:00;3.40;;;1.83;;
76846;SDS011;65813;49.546;8.644;2023-08-30T11:39:00;4.00;;;2.20;;
76846;SDS011;65813;49.546;8.644;2023-08-30T11:43:02;3.80;;;2.15;;
76846;SDS011;65813;49.546;8.644;2023-08-30T11:47:03;2.97;;;1.85;;
76846;SDS011;65813;49.546;8.644;2023-08-30T11:51:04;3.20;;;1.92;;
76846;SDS011;65813;49.546;8.644;2023-08-30T11:55:05;3.83;;;2.10;;
76846;SDS011;65813;49.546;8.644;2023-08-30T11:59:07;4.25;;;2.10;;
76846;SDS011;65813;49.546;8.644;2023-08-30T12:03:21;4.13;;;2.03;;
76846;SDS011;65813;49.546;8.644;2023-08-30T12:07:22;4.70;;;2.10;;
76846;SDS011;65813;49.546;8.644;2023-08-30T12:11:23;3.53;;;2.03;;
76846;SDS011;65813;49.546;8.644;2023-08-30T12:15:23;3.27;;;2.13;;
76846;SDS011;65813;49.546;8.644;2023-08-30T12:19:27;3.83;;;2.10;;
76846;SDS011;65813;49.546;8.644;2023-08-30T12:23:29;4.38;;;2.22;;
76846;SDS011;65813;49.546;8.644;2023-08-30T12:27:30;3.80;;;1.90;;
76846;SDS011;65813;49.546;8.644;2023-08-30T12:31:31;4.47;;;1.93;;
76846;SDS011;65813;49.546;8.644;2023-08-30T12:35:32;3.55;;;1.70;;
76846;SDS011;65813;49.546;8.644;2023-08-30T12:39:33;2.88;;;1.75;;
76846;SDS011;65813;49.546;8.644;2023-08-30T12:43:33;3.03;;;1.80;;
76846;SDS011;65813;49.546;8.644;2023-08-30T12:47:33;6.83;;;2.10;;
76846;SDS011;65813;49.546;8.644;2023-08-30T12:51:34;3.90;;;1.77;;
76846;SDS011;65813;49.546;8.644;2023-08-30T12:55:34;4.63;;;1.80;;
76846;SDS011;65813;49.546;8.644;2023-08-30T12:59:35;3.40;;;1.85;;
76846;SDS011;65813;49.546;8.644;2023-08-30T13:03:35;4.83;;;2.33;;
76846;SDS011;65813;49.546;8.644;2023-08-30T13:07:35;3.40;;;1.77;;
76846;SDS011;65813;49.546;8.644;2023-08-30T13:11:36;3.67;;;1.98;;
76846;SDS011;65813;49.546;8.644;2023-08-30T13:15:36;4.20;;;1.80;;
76846;SDS011;65813;49.546;8.644;2023-08-30T13:19:36;3.97;;;1.70;;
76846;SDS011;65813;49.546;8.644;2023-08-30T13:23:37;3.67;;;1.60;;
76846;SDS011;65813;49.546;8.644;2023-08-30T13:27:37;3.03;;;1.50;;
76846;SDS011;65813;49.546;8.644;2023-08-30T13:31:37;3.25;;;1.50;;
76846;SDS011;65813;49.546;8.644;2023-08-30T13:35:38;3.45;;;1.60;;
76846;SDS011;65813;49.546;8.644;2023-08-30T13:39:39;2.65;;;1.50;;
76846;SDS011;65813;49.546;8.644;2023-08-30T13:43:40;4.00;;;1.65;;
76846;SDS011;65813;49.546;8.644;2023-08-30T13:47:40;3.17;;;1.57;;
76846;SDS011;65813;49.546;8.644;2023-08-30T13:51:41;3.45;;;1.67;;
76846;SDS011;65813;49.546;8.644;2023-08-30T13:55:44;2.85;;;1.70;;
76846;SDS011;65813;49.546;8.644;2023-08-30T13:59:50;4.45;;;1.58;;
76846;SDS011;65813;49.546;8.644;2023-08-30T14:03:51;4.85;;;1.70;;
76846;SDS011;65813;49.546;8.644;2023-08-30T14:07:51;3.87;;;1.60;;
76846;SDS011;65813;49.546;8.644;2023-08-30T14:11:52;3.35;;;1.50;;
76846;SDS011;65813;49.546;8.644;2023-08-30T14:15:52;4.47;;;1.58;;
76846;SDS011;65813;49.546;8.644;2023-08-30T14:19:52;4.77;;;2.17;;
76846;SDS011;65813;49.546;8.644;2023-08-30T14:23:53;2.67;;;1.37;;
76846;SDS011;65813;49.546;8.644;2023-08-30T14:27:53;3.13;;;1.50;;
76846;SDS011;65813;49.546;8.644;2023-08-30T14:31:55;3.85;;;1.50;;
76846;SDS011;65813;49.546;8.644;2023-08-30T14:35:55;3.33;;;1.50;;
76846;SDS011;65813;49.546;8.644;2023-08-30T14:39:56;3.72;;;1.60;;
76846;SDS011;65813;49.546;8.644;2023-08-30T14:43:57;3.78;;;1.50;;
76846;SDS011;65813;49.546;8.644;2023-08-30T14:47:57;3.63;;;1.50;;
76846;SDS011;65813;49.546;8.644;2023-08-30T14:51:57;3.25;;;1.38;;
76846;SDS011;65813;49.546;8.644;2023-08-30T14:56:00;4.38;;;1.50;;
76846;SDS011;65813;49.546;8.644;2023-08-30T15:00:00;3.95;;;1.50;;
76846;SDS011;65813;49.546;8.644;2023-08-30T15:04:00;3.83;;;1.60;;
76846;SDS011;65813;49.546;8.644;2023-08-30T15:08:01;5.27;;;2.10;;
76846;SDS011;65813;49.546;8.644;2023-08-30T15:12:02;5.53;;;1.70;;
76846;SDS011;65813;49.546;8.644;2023-08-30T15:16:04;4.57;;;1.75;;
76846;SDS011;65813;49.546;8.644;2023-08-30T15:20:05;3.75;;;1.45;;
76846;SDS011;65813;49.546;8.644;2023-08-30T15:24:06;3.85;;;1.90;;
76846;SDS011;65813;49.546;8.644;2023-08-30T15:28:07;3.78;;;1.70;;
76846;SDS011;65813;49.546;8.644;2023-08-30T15:32:07;3.92;;;1.75;;
76846;SDS011;65813;49.546;8.644;2023-08-30T15:36:08;4.03;;;1.80;;
76846;SDS011;65813;49.546;8.644;2023-08-30T15:40:08;3.90;;;1.70;;
76846;SDS011;65813;49.546;8.644;2023-08-30T15:44:09;5.28;;;2.05;;
76846;SDS011;65813;49.546;8.644;2023-08-30T15:48:10;3.80;;;1.73;;
76846;SDS011;65813;49.546;8.644;2023-08-30T15:52:11;4.60;;;2.20;;
76846;SDS011;65813;49.546;8.644;2023-08-30T15:56:11;3.58;;;1.63;;
76846;SDS011;65813;49.546;8.644;2023-08-30T16:00:12;4.68;;;1.92;;
76846;SDS011;65813;49.546;8.644;2023-08-30T16:04:12;5.82;;;1.95;;
76846;SDS011;65813;49.546;8.644;2023-08-30T16:08:13;4.35;;;2.22;;
76846;SDS011;65813;49.546;8.644;2023-08-30T16:12:14;3.83;;;1.95;;
76846;SDS011;65813;49.546;8.644;2023-08-30T16:16:14;5.32;;;2.30;;
76846;SDS011;65813;49.546;8.644;2023-08-30T16:20:15;4.78;;;1.80;;
76846;SDS011;65813;49.546;8.644;2023-08-30T16:24:15;3.40;;;1.90;;
76846;SDS011;65813;49.546;8.644;2023-08-30T16:28:15;4.60;;;2.00;;
76846;SDS011;65813;49.546;8.644;2023-08-30T16:32:16;4.30;;;2.10;;
76846;SDS011;65813;49.546;8.644;2023-08-30T16:36:16;3.80;;;1.80;;
76846;SDS011;65813;49.546;8.644;2023-08-30T16:40:17;6.90;;;2.40;;
76846;SDS011;65813;49.546;8.644;2023-08-30T16:44:17;5.83;;;2.23;;
76846;SDS011;65813;49.546;8.644;2023-08-30T16:48:17;5.57;;;2.20;;
76846;SDS011;65813;49.546;8.644;2023-08-30T16:52:18;4.55;;;2.10;;
76846;SDS011;65813;49.546;8.644;2023-08-30T16:56:18;4.53;;;2.20;;
76846;SDS011;65813;49.546;8.644;2023-08-30T17:00:19;4.27;;;2.13;;
76846;SDS011;65813;49.546;8.644;2023-08-30T17:04:19;4.70;;;2.20;;
76846;SDS011;65813;49.546;8.644;2023-08-30T17:08:20;4.83;;;2.10;;
76846;SDS011;65813;49.546;8.644;2023-08-30T17:12:21;4.28;;;2.17;;
76846;SDS011;65813;49.546;8.644;2023-08-30T17:16:21;4.60;;;2.08;;
76846;SDS011;65813;49.546;8.644;2023-08-30T17:20:23;3.85;;;2.00;;
76846;SDS011;65813;49.546;8.644;2023-08-30T17:24:23;5.40;;;2.03;;
76846;SDS011;65813;49.546;8.644;2023-08-30T17:28:24;5.88;;;2.13;;
76846;SDS011;65813;49.546;8.644;2023-08-30T17:32:24;4.63;;;2.50;;
76846;SDS011;65813;49.546;8.644;2023-08-30T17:36:25;4.40;;;1.88;;
76846;SDS011;65813;49.546;8.644;2023-08-30T17:40:29;6.07;;;2.00;;
76846;SDS011;65813;49.546;8.644;2023-08-30T17:44:31;4.03;;;1.90;;
76846;SDS011;65813;49.546;8.644;2023-08-30T17:48:32;3.90;;;1.80;;
76846;SDS011;65813;49.546;8.644;2023-08-30T17:52:35;4.57;;;2.00;;
76846;SDS011;65813;49.546;8.644;2023-08-30T17:56:36;5.23;;;2.17;;
76846;SDS011;65813;49.546;8.644;2023-08-30T18:00:36;4.38;;;2.10;;
76846;SDS011;65813;49.546;8.644;2023-08-30T18:04:37;3.73;;;2.10;;
76846;SDS011;65813;49.546;8.644;2023-08-30T18:08:38;4.15;;;1.90;;
76846;SDS011;65813;49.546;8.644;2023-08-30T18:12:39;4.47;;;2.40;;
76846;SDS011;65813;49.546;8.644;2023-08-30T18:16:39;4.32;;;2.10;;
76846;SDS011;65813;49.546;8.644;2023-08-30T18:20:40;4.43;;;2.33;;
76846;SDS011;65813;49.546;8.644;2023-08-30T18:24:40;4.65;;;1.40;;
76846;SDS011;65813;49.546;8.644;2023-08-30T18:28:42;4.53;;;1.17;;
76846;SDS011;65813;49.546;8.644;2023-08-30T18:32:42;4.67;;;0.70;;
76846;SDS011;65813;49.546;8.644;2023-08-30T18:36:43;4.57;;;0.80;;
76846;SDS011;65813;49.546;8.644;2023-08-30T18:40:44;2.83;;;1.00;;
76846;SDS011;65813;49.546;8.644;2023-08-30T18:44:45;4.07;;;1.00;;
76846;SDS011;65813;49.546;8.644;2023-08-30T18:48:47;4.13;;;1.00;;
76846;SDS011;65813;49.546;8.644;2023-08-30T18:52:48;1.90;;;0.80;;
76846;SDS011;65813;49.546;8.644;2023-08-30T18:56:49;2.60;;;1.00;;
76846;SDS011;65813;49.546;8.644;2023-08-30T19:00:49;2.67;;;1.20;;
76846;SDS011;65813;49.546;8.644;2023-08-30T19:04:50;4.05;;;1.00;;
76846;SDS011;65813;49.546;8.644;2023-08-30T19:08:51;2.72;;;1.10;;
76846;SDS011;65813;49.546;8.644;2023-08-30T19:12:52;2.30;;;1.10;;
76846;SDS011;65813;49.546;8.644;2023-08-30T19:16:52;2.43;;;1.07;;
76846;SDS011;65813;49.546;8.644;2023-08-30T19:20:56;3.13;;;1.10;;
76846;SDS011;65813;49.546;8.644;2023-08-30T19:24:57;4.13;;;1.17;;
76846;SDS011;65813;49.546;8.644;2023-08-30T19:28:58;2.33;;;1.00;;
76846;SDS011;65813;49.546;8.644;2023-08-30T19:32:58;2.43;;;1.10;;
76846;SDS011;65813;49.546;8.644;2023-08-30T19:36:58;3.80;;;1.27;;
76846;SDS011;65813;49.546;8.644;2023-08-30T19:40:59;4.37;;;1.10;;
76846;SDS011;65813;49.546;8.644;2023-08-30T19:44:59;3.97;;;1.30;;
76846;SDS011;65813;49.546;8.644;2023-08-30T19:49:01;3.65;;;1.30;;
76846;SDS011;65813;49.546;8.644;2023-08-30T19:53:01;3.63;;;1.10;;
76846;SDS011;65813;49.546;8.644;2023-08-30T19:57:03;3.53;;;1.20;;
76846;SDS011;65813;49.546;8.644;2023-08-30T20:01:04;3.55;;;1.23;;
76846;SDS011;65813;49.546;8.644;2023-08-30T20:05:06;3.33;;;1.60;;
76846;SDS011;65813;49.546;8.644;2023-08-30T20:09:06;5.55;;;1.40;;
76846;SDS011;65813;49.546;8.644;2023-08-30T20:13:07;4.80;;;1.40;;
76846;SDS011;65813;49.546;8.644;2023-08-30T20:17:07;3.20;;;1.50;;
76846;SDS011;65813;49.546;8.644;2023-08-30T20:21:11;4.22;;;1.60;;
76846;SDS011;65813;49.546;8.644;2023-08-30T20:29:14;2.95;;;1.38;;
76846;SDS011;65813;49.546;8.644;2023-08-30T20:33:14;3.25;;;1.38;;
76846;SDS011;65813;49.546;8.644;2023-08-30T20:37:15;4.47;;;1.75;;
76846;SDS011;65813;49.546;8.644;2023-08-30T20:41:16;4.50;;;1.70;;
76846;SDS011;65813;49.546;8.644;2023-08-30T20:45:16;3.50;;;1.47;;
76846;SDS011;65813;49.546;8.644;2023-08-30T20:49:16;5.10;;;1.70;;
76846;SDS011;65813;49.546;8.644;2023-08-30T20:53:17;5.17;;;1.70;;
76846;SDS011;65813;49.546;8.644;2023-08-30T20:57:17;4.97;;;1.80;;
76846;SDS011;65813;49.546;8.644;2023-08-30T21:01:17;5.00;;;2.00;;
76846;SDS011;65813;49.546;8.644;2023-08-30T21:05:18;4.90;;;2.00;;
76846;SDS011;65813;49.546;8.644;2023-08-30T21:09:18;4.88;;;2.10;;
76846;SDS011;65813;49.546;8.644;2023-08-30T21:13:18;4.83;;;1.77;;
76846;SDS011;65813;49.546;8.644;2023-08-30T21:17:19;5.03;;;2.30;;
76846;SDS011;65813;49.546;8.644;2023-08-30T21:21:19;5.10;;;1.80;;
76846;SDS011;65813;49.546;8.644;2023-08-30T21:25:21;4.13;;;1.90;;
76846;SDS011;65813;49.546;8.644;2023-08-30T21:29:22;3.72;;;1.83;;
76846;SDS011;65813;49.546;8.644;2023-08-30T21:33:23;6.03;;;1.93;;
76846;SDS011;65813;49.546;8.644;2023-08-30T21:37:23;4.53;;;1.90;;
76846;SDS011;65813;49.546;8.644;2023-08-30T21:41:24;3.70;;;1.90;;
76846;SDS011;65813;49.546;8.644;2023-08-30T21:45:24;4.67;;;1.93;;
76846;SDS011;65813;49.546;8.644;2023-08-30T21:49:24;4.00;;;1.90;;
76846;SDS011;65813;49.546;8.644;2023-08-30T21:53:25;4.77;;;2.27;;
76846;SDS011;65813;49.546;8.644;2023-08-30T21:57:25;4.10;;;1.93;;
76846;SDS011;65813;49.546;8.644;2023-08-30T22:01:25;5.40;;;2.30;;
76846;SDS011;65813;49.546;8.644;2023-08-30T22:05:26;5.35;;;2.38;;
76846;SDS011;65813;49.546;8.644;2023-08-30T22:09:27;7.47;;;2.43;;
76846;SDS011;65813;49.546;8.644;2023-08-30T22:13:28;6.50;;;2.28;;
76846;SDS011;65813;49.546;8.644;2023-08-30T22:17:28;4.50;;;2.50;;
76846;SDS011;65813;49.546;8.644;2023-08-30T22:21:29;4.70;;;2.33;;
76846;SDS011;65813;49.546;8.644;2023-08-30T22:25:30;5.85;;;2.08;;
76846;SDS011;65813;49.546;8.644;2023-08-30T22:29:30;5.83;;;2.00;;
76846;SDS011;65813;49.546;8.644;2023-08-30T22:33:31;4.60;;;1.90;;
76846;SDS011;65813;49.546;8.644;2023-08-30T22:37:36;5.65;;;2.33;;
76846;SDS011;65813;49.546;8.644;2023-08-30T22:41:37;5.18;;;2.20;;
76846;SDS011;65813;49.546;8.644;2023-08-30T22:45:37;4.20;;;1.87;;
76846;SDS011;65813;49.546;8.644;2023-08-30T22:49:38;4.17;;;1.87;;
76846;SDS011;65813;49.546;8.644;2023-08-30T22:53:38;4.38;;;2.05;;
76846;SDS011;65813;49.546;8.644;2023-08-30T22:57:40;6.00;;;2.10;;
76846;SDS011;65813;49.546;8.644;2023-08-30T23:01:41;4.47;;;2.13;;
76846;SDS011;65813;49.546;8.644;2023-08-30T23:05:41;3.50;;;1.93;;
76846;SDS011;65813;49.546;8.644;2023-08-30T23:09:41;4.73;;;2.13;;
76846;SDS011;65813;49.546;8.644;2023-08-30T23:13:41;4.13;;;2.23;;
76846;SDS011;65813;49.546;8.644;2023-08-30T23:17:43;3.88;;;2.05;;
76846;SDS011;65813;49.546;8.644;2023-08-30T23:21:44;4.78;;;2.03;;
76846;SDS011;65813;49.546;8.644;2023-08-30T23:25:44;4.40;;;2.00;;
76846;SDS011;65813;49.546;8.644;2023-08-30T23:29:44;4.70;;;1.87;;
76846;SDS011;65813;49.546;8.644;2023-08-30T23:33:45;4.17;;;1.67;;
76846;SDS011;65813;49.546;8.644;2023-08-30T23:37:46;3.60;;;1.70;;
76846;SDS011;65813;49.546;8.644;2023-08-30T23:41:46;5.07;;;1.93;;
76846;SDS011;65813;49.546;8.644;2023-08-30T23:45:46;4.13;;;1.80;;
76846;SDS011;65813;49.546;8.644;2023-08-30T23:49:52;3.35;;;1.80;;
76846;SDS011;65813;49.546;8.644;2023-08-30T23:53:53;4.65;;;1.80;;
76846;SDS011;65813;49.546;8.644;2023-08-30T23:57:53;4.37;;;1.90;;
